sensor_id;sensor_type;location;lat;lon;timestamp;temperature;humidity
78767;SHT31;68092;51.982;5.680;2023-09-08T00:00:25;24.7;55.7
78767;SHT31;68092;51.982;5.680;2023-09-08T00:02:54;24.7;55.8
78767;SHT31;68092;51.982;5.680;2023-09-08T00:05:23;24.7;56.0
78767;SHT31;68092;51.982;5.680;2023-09-08T00:07:51;24.7;56.1
78767;SHT31;68092;51.982;5.680;2023-09-08T00:10:20;24.6;56.1
78767;SHT31;68092;51.982;5.680;2023-09-08T00:12:48;24.6;56.3
78767;SHT31;68092;51.982;5.680;2023-09-08T00:15:19;24.6;56.2
78767;SHT31;68092;51.982;5.680;2023-09-08T00:17:48;24.6;56.3
78767;SHT31;68092;51.982;5.680;2023-09-08T00:20:16;24.6;56.0
78767;SHT31;68092;51.982;5.680;2023-09-08T00:22:45;24.6;56.3
78767;SHT31;68092;51.982;5.680;2023-09-08T00:25:17;24.6;56.3
78767;SHT31;68092;51.982;5.680;2023-09-08T00:27:46;24.6;56.4
78767;SHT31;68092;51.982;5.680;2023-09-08T00:30:14;24.5;56.2
78767;SHT31;68092;51.982;5.680;2023-09-08T00:32:43;24.5;56.3
78767;SHT31;68092;51.982;5.680;2023-09-08T00:35:12;24.5;56.6
78767;SHT31;68092;51.982;5.680;2023-09-08T00:37:41;24.5;56.4
78767;SHT31;68092;51.982;5.680;2023-09-08T00:40:10;24.5;56.4
78767;SHT31;68092;51.982;5.680;2023-09-08T00:42:39;24.5;56.7
78767;SHT31;68092;51.982;5.680;2023-09-08T00:45:08;24.5;56.6
78767;SHT31;68092;51.982;5.680;2023-09-08T00:47:37;24.5;56.7
78767;SHT31;68092;51.982;5.680;2023-09-08T00:50:06;24.4;56.4
78767;SHT31;68092;51.982;5.680;2023-09-08T00:52:35;24.4;56.5
78767;SHT31;68092;51.982;5.680;2023-09-08T00:55:04;24.4;56.6
78767;SHT31;68092;51.982;5.680;2023-09-08T00:57:36;24.4;56.6
78767;SHT31;68092;51.982;5.680;2023-09-08T01:00:07;24.4;56.6
78767;SHT31;68092;51.982;5.680;2023-09-08T01:02:37;24.3;56.6
78767;SHT31;68092;51.982;5.680;2023-09-08T01:05:06;24.3;56.9
78767;SHT31;68092;51.982;5.680;2023-09-08T01:07:35;24.3;56.9
78767;SHT31;68092;51.982;5.680;2023-09-08T01:10:05;24.3;56.9
78767;SHT31;68092;51.982;5.680;2023-09-08T01:12:34;24.3;56.9
78767;SHT31;68092;51.982;5.680;2023-09-08T01:15:03;24.2;56.9
78767;SHT31;68092;51.982;5.680;2023-09-08T01:17:34;24.2;57.1
78767;SHT31;68092;51.982;5.680;2023-09-08T01:20:06;24.2;57.2
78767;SHT31;68092;51.982;5.680;2023-09-08T01:23:13;24.2;57.1
78767;SHT31;68092;51.982;5.680;2023-09-08T01:25:50;24.1;57.0
78767;SHT31;68092;51.982;5.680;2023-09-08T01:28:21;24.1;56.9
78767;SHT31;68092;51.982;5.680;2023-09-08T01:30:51;24.1;56.8
78767;SHT31;68092;51.982;5.680;2023-09-08T01:33:22;24.1;56.8
78767;SHT31;68092;51.982;5.680;2023-09-08T01:35:51;24.1;57.2
78767;SHT31;68092;51.982;5.680;2023-09-08T01:38:25;24.1;57.2
78767;SHT31;68092;51.982;5.680;2023-09-08T01:40:54;24.0;57.5
78767;SHT31;68092;51.982;5.680;2023-09-08T01:43:22;24.0;57.3
78767;SHT31;68092;51.982;5.680;2023-09-08T01:45:51;24.0;57.3
78767;SHT31;68092;51.982;5.680;2023-09-08T01:48:20;24.0;57.4
78767;SHT31;68092;51.982;5.680;2023-09-08T01:50:48;24.0;57.4
78767;SHT31;68092;51.982;5.680;2023-09-08T01:53:17;23.9;57.5
78767;SHT31;68092;51.982;5.680;2023-09-08T01:55:46;23.9;57.3
78767;SHT31;68092;51.982;5.680;2023-09-08T01:58:14;23.9;57.3
78767;SHT31;68092;51.982;5.680;2023-09-08T02:00:43;23.9;57.4
78767;SHT31;68092;51.982;5.680;2023-09-08T02:03:11;23.9;57.5
78767;SHT31;68092;51.982;5.680;2023-09-08T02:05:40;23.8;57.6
78767;SHT31;68092;51.982;5.680;2023-09-08T02:08:08;23.8;57.4
78767;SHT31;68092;51.982;5.680;2023-09-08T02:10:39;23.8;57.4
78767;SHT31;68092;51.982;5.680;2023-09-08T02:13:08;23.8;57.4
78767;SHT31;68092;51.982;5.680;2023-09-08T02:15:37;23.8;57.4
78767;SHT31;68092;51.982;5.680;2023-09-08T02:18:07;23.7;57.5
78767;SHT31;68092;51.982;5.680;2023-09-08T02:20:35;23.7;57.5
78767;SHT31;68092;51.982;5.680;2023-09-08T02:23:06;23.7;57.6
78767;SHT31;68092;51.982;5.680;2023-09-08T02:25:37;23.7;57.7
78767;SHT31;68092;51.982;5.680;2023-09-08T02:28:06;23.7;57.7
78767;SHT31;68092;51.982;5.680;2023-09-08T02:30:34;23.6;57.7
78767;SHT31;68092;51.982;5.680;2023-09-08T02:33:04;23.6;57.7
78767;SHT31;68092;51.982;5.680;2023-09-08T02:35:36;23.6;57.5
78767;SHT31;68092;51.982;5.680;2023-09-08T02:38:05;23.6;57.7
78767;SHT31;68092;51.982;5.680;2023-09-08T02:40:34;23.6;58.0
78767;SHT31;68092;51.982;5.680;2023-09-08T02:43:05;23.6;58.1
78767;SHT31;68092;51.982;5.680;2023-09-08T02:45:33;23.5;58.0
78767;SHT31;68092;51.982;5.680;2023-09-08T02:48:02;23.5;57.9
78767;SHT31;68092;51.982;5.680;2023-09-08T02:50:31;23.5;57.9
78767;SHT31;68092;51.982;5.680;2023-09-08T02:52:59;23.5;58.0
78767;SHT31;68092;51.982;5.680;2023-09-08T02:55:28;23.5;58.0
78767;SHT31;68092;51.982;5.680;2023-09-08T02:57:57;23.5;58.0
78767;SHT31;68092;51.982;5.680;2023-09-08T03:00:26;23.5;58.2
78767;SHT31;68092;51.982;5.680;2023-09-08T03:02:55;23.4;58.1
78767;SHT31;68092;51.982;5.680;2023-09-08T03:05:24;23.4;58.2
78767;SHT31;68092;51.982;5.680;2023-09-08T03:07:53;23.4;58.1
78767;SHT31;68092;51.982;5.680;2023-09-08T03:10:21;23.4;58.2
78767;SHT31;68092;51.982;5.680;2023-09-08T03:12:50;23.4;58.3
78767;SHT31;68092;51.982;5.680;2023-09-08T03:15:20;23.4;58.3
78767;SHT31;68092;51.982;5.680;2023-09-08T03:17:49;23.4;58.4
78767;SHT31;68092;51.982;5.680;2023-09-08T03:20:17;23.4;58.4
78767;SHT31;68092;51.982;5.680;2023-09-08T03:22:46;23.4;58.4
78767;SHT31;68092;51.982;5.680;2023-09-08T03:25:15;23.4;58.6
78767;SHT31;68092;51.982;5.680;2023-09-08T03:27:44;23.3;58.4
78767;SHT31;68092;51.982;5.680;2023-09-08T03:30:13;23.3;58.4
78767;SHT31;68092;51.982;5.680;2023-09-08T03:32:42;23.3;58.5
78767;SHT31;68092;51.982;5.680;2023-09-08T03:35:10;23.3;58.5
78767;SHT31;68092;51.982;5.680;2023-09-08T03:37:39;23.3;58.5
78767;SHT31;68092;51.982;5.680;2023-09-08T03:40:09;23.3;58.6
78767;SHT31;68092;51.982;5.680;2023-09-08T03:42:37;23.3;58.5
78767;SHT31;68092;51.982;5.680;2023-09-08T03:45:08;23.3;58.6
78767;SHT31;68092;51.982;5.680;2023-09-08T03:47:36;23.3;58.6
78767;SHT31;68092;51.982;5.680;2023-09-08T03:50:07;23.2;58.7
78767;SHT31;68092;51.982;5.680;2023-09-08T03:52:36;23.2;58.8
78767;SHT31;68092;51.982;5.680;2023-09-08T03:55:05;23.2;58.8
78767;SHT31;68092;51.982;5.680;2023-09-08T03:57:34;23.2;58.5
78767;SHT31;68092;51.982;5.680;2023-09-08T04:00:03;23.2;58.7
78767;SHT31;68092;51.982;5.680;2023-09-08T04:02:33;23.2;58.6
78767;SHT31;68092;51.982;5.680;2023-09-08T04:05:01;23.2;58.5
78767;SHT31;68092;51.982;5.680;2023-09-08T04:07:30;23.2;58.7
78767;SHT31;68092;51.982;5.680;2023-09-08T04:09:58;23.1;58.6
78767;SHT31;68092;51.982;5.680;2023-09-08T04:12:28;23.1;58.5
78767;SHT31;68092;51.982;5.680;2023-09-08T04:14:57;23.1;58.5
78767;SHT31;68092;51.982;5.680;2023-09-08T04:17:25;23.1;58.5
78767;SHT31;68092;51.982;5.680;2023-09-08T04:19:54;23.1;58.4
78767;SHT31;68092;51.982;5.680;2023-09-08T04:22:22;23.1;58.4
78767;SHT31;68092;51.982;5.680;2023-09-08T04:24:51;23.1;58.4
78767;SHT31;68092;51.982;5.680;2023-09-08T04:27:20;23.1;58.5
78767;SHT31;68092;51.982;5.680;2023-09-08T04:29:49;23.1;58.7
78767;SHT31;68092;51.982;5.680;2023-09-08T04:32:18;23.1;58.7
78767;SHT31;68092;51.982;5.680;2023-09-08T04:34:47;23.1;58.7
78767;SHT31;68092;51.982;5.680;2023-09-08T04:37:15;23.0;58.5
78767;SHT31;68092;51.982;5.680;2023-09-08T04:39:46;23.0;58.5
78767;SHT31;68092;51.982;5.680;2023-09-08T04:42:14;23.0;58.7
78767;SHT31;68092;51.982;5.680;2023-09-08T04:44:43;23.0;58.9
78767;SHT31;68092;51.982;5.680;2023-09-08T04:47:12;23.0;58.9
78767;SHT31;68092;51.982;5.680;2023-09-08T04:49:41;23.0;59.0
78767;SHT31;68092;51.982;5.680;2023-09-08T04:52:10;23.0;58.9
78767;SHT31;68092;51.982;5.680;2023-09-08T04:54:40;23.0;59.0
78767;SHT31;68092;51.982;5.680;2023-09-08T04:57:11;22.9;59.3
78767;SHT31;68092;51.982;5.680;2023-09-08T04:59:39;22.9;59.2
78767;SHT31;68092;51.982;5.680;2023-09-08T05:02:08;22.9;59.2
78767;SHT31;68092;51.982;5.680;2023-09-08T05:04:37;22.9;59.2
78767;SHT31;68092;51.982;5.680;2023-09-08T05:07:05;22.9;59.3
78767;SHT31;68092;51.982;5.680;2023-09-08T05:09:34;22.9;59.3
78767;SHT31;68092;51.982;5.680;2023-09-08T05:12:03;22.9;59.3
78767;SHT31;68092;51.982;5.680;2023-09-08T05:14:32;22.9;59.3
78767;SHT31;68092;51.982;5.680;2023-09-08T05:17:01;22.9;59.3
78767;SHT31;68092;51.982;5.680;2023-09-08T05:19:31;22.9;59.4
78767;SHT31;68092;51.982;5.680;2023-09-08T05:22:00;22.9;59.4
78767;SHT31;68092;51.982;5.680;2023-09-08T05:24:29;22.9;59.4
78767;SHT31;68092;51.982;5.680;2023-09-08T05:26:57;22.9;59.3
78767;SHT31;68092;51.982;5.680;2023-09-08T05:29:27;22.9;59.4
78767;SHT31;68092;51.982;5.680;2023-09-08T05:31:55;22.9;59.6
78767;SHT31;68092;51.982;5.680;2023-09-08T05:34:25;22.9;59.6
78767;SHT31;68092;51.982;5.680;2023-09-08T05:36:54;22.9;59.6
78767;SHT31;68092;51.982;5.680;2023-09-08T05:39:22;22.9;59.7
78767;SHT31;68092;51.982;5.680;2023-09-08T05:41:51;22.9;59.8
78767;SHT31;68092;51.982;5.680;2023-09-08T05:44:20;22.9;59.7
78767;SHT31;68092;51.982;5.680;2023-09-08T05:46:49;22.9;59.9
78767;SHT31;68092;51.982;5.680;2023-09-08T05:49:17;22.9;59.7
78767;SHT31;68092;51.982;5.680;2023-09-08T05:51:46;22.9;59.7
78767;SHT31;68092;51.982;5.680;2023-09-08T05:54:17;22.9;59.7
78767;SHT31;68092;51.982;5.680;2023-09-08T05:56:46;22.9;59.8
78767;SHT31;68092;51.982;5.680;2023-09-08T05:59:14;23.0;60.0
78767;SHT31;68092;51.982;5.680;2023-09-08T06:01:43;23.0;60.0
78767;SHT31;68092;51.982;5.680;2023-09-08T06:04:12;23.0;59.9
78767;SHT31;68092;51.982;5.680;2023-09-08T06:06:40;23.0;59.8
78767;SHT31;68092;51.982;5.680;2023-09-08T06:09:09;23.0;59.9
78767;SHT31;68092;51.982;5.680;2023-09-08T06:11:38;23.0;60.1
78767;SHT31;68092;51.982;5.680;2023-09-08T06:14:07;23.0;60.0
78767;SHT31;68092;51.982;5.680;2023-09-08T06:16:36;23.0;59.9
78767;SHT31;68092;51.982;5.680;2023-09-08T06:19:04;23.0;60.1
78767;SHT31;68092;51.982;5.680;2023-09-08T06:21:33;23.0;60.1
78767;SHT31;68092;51.982;5.680;2023-09-08T06:24:02;23.1;60.0
78767;SHT31;68092;51.982;5.680;2023-09-08T06:26:30;23.1;60.1
78767;SHT31;68092;51.982;5.680;2023-09-08T06:29:01;23.1;60.4
78767;SHT31;68092;51.982;5.680;2023-09-08T06:31:29;23.1;60.2
78767;SHT31;68092;51.982;5.680;2023-09-08T06:33:58;23.1;60.5
78767;SHT31;68092;51.982;5.680;2023-09-08T06:36:26;23.1;60.6
78767;SHT31;68092;51.982;5.680;2023-09-08T06:38:55;23.1;60.8
78767;SHT31;68092;51.982;5.680;2023-09-08T06:41:25;23.1;60.8
78767;SHT31;68092;51.982;5.680;2023-09-08T06:43:55;23.1;61.0
78767;SHT31;68092;51.982;5.680;2023-09-08T06:46:25;23.2;61.5
78767;SHT31;68092;51.982;5.680;2023-09-08T06:48:54;23.2;61.1
78767;SHT31;68092;51.982;5.680;2023-09-08T06:51:23;23.2;60.8
78767;SHT31;68092;51.982;5.680;2023-09-08T06:53:56;23.2;61.2
78767;SHT31;68092;51.982;5.680;2023-09-08T06:56:26;23.3;61.1
78767;SHT31;68092;51.982;5.680;2023-09-08T06:58:56;23.3;61.1
78767;SHT31;68092;51.982;5.680;2023-09-08T07:01:26;23.3;59.9
78767;SHT31;68092;51.982;5.680;2023-09-08T07:03:55;23.4;59.7
78767;SHT31;68092;51.982;5.680;2023-09-08T07:06:23;23.4;60.1
78767;SHT31;68092;51.982;5.680;2023-09-08T07:08:52;23.4;59.8
78767;SHT31;68092;51.982;5.680;2023-09-08T07:11:21;23.4;59.7
78767;SHT31;68092;51.982;5.680;2023-09-08T07:13:49;23.5;59.4
78767;SHT31;68092;51.982;5.680;2023-09-08T07:16:18;23.5;59.9
78767;SHT31;68092;51.982;5.680;2023-09-08T07:18:46;23.5;59.4
78767;SHT31;68092;51.982;5.680;2023-09-08T07:21:17;23.6;59.9
78767;SHT31;68092;51.982;5.680;2023-09-08T07:23:46;23.6;59.5
78767;SHT31;68092;51.982;5.680;2023-09-08T07:26:14;23.7;60.0
78767;SHT31;68092;51.982;5.680;2023-09-08T07:28:43;23.7;60.1
78767;SHT31;68092;51.982;5.680;2023-09-08T07:31:12;23.8;60.1
78767;SHT31;68092;51.982;5.680;2023-09-08T07:33:40;23.8;59.6
78767;SHT31;68092;51.982;5.680;2023-09-08T07:36:10;23.9;59.7
78767;SHT31;68092;51.982;5.680;2023-09-08T07:38:40;23.9;59.4
78767;SHT31;68092;51.982;5.680;2023-09-08T07:41:08;24.0;59.6
78767;SHT31;68092;51.982;5.680;2023-09-08T07:43:39;24.0;58.9
78767;SHT31;68092;51.982;5.680;2023-09-08T07:46:11;24.0;59.2
78767;SHT31;68092;51.982;5.680;2023-09-08T07:48:40;24.1;59.0
78767;SHT31;68092;51.982;5.680;2023-09-08T07:51:09;24.1;58.9
78767;SHT31;68092;51.982;5.680;2023-09-08T07:53:37;24.2;58.7
78767;SHT31;68092;51.982;5.680;2023-09-08T07:56:08;24.2;58.9
78767;SHT31;68092;51.982;5.680;2023-09-08T07:58:37;24.2;59.0
78767;SHT31;68092;51.982;5.680;2023-09-08T08:01:06;24.3;59.7
78767;SHT31;68092;51.982;5.680;2023-09-08T08:03:35;24.3;59.6
78767;SHT31;68092;51.982;5.680;2023-09-08T08:06:05;24.4;59.4
78767;SHT31;68092;51.982;5.680;2023-09-08T08:08:34;24.4;59.5
78767;SHT31;68092;51.982;5.680;2023-09-08T08:11:08;24.5;59.6
78767;SHT31;68092;51.982;5.680;2023-09-08T08:13:36;24.5;59.1
78767;SHT31;68092;51.982;5.680;2023-09-08T08:16:05;24.6;59.0
78767;SHT31;68092;51.982;5.680;2023-09-08T08:18:34;24.6;59.4
78767;SHT31;68092;51.982;5.680;2023-09-08T08:21:04;24.6;59.1
78767;SHT31;68092;51.982;5.680;2023-09-08T08:23:35;24.7;59.7
78767;SHT31;68092;51.982;5.680;2023-09-08T08:26:09;24.7;59.2
78767;SHT31;68092;51.982;5.680;2023-09-08T08:28:38;24.8;59.7
78767;SHT31;68092;51.982;5.680;2023-09-08T08:31:07;24.8;59.5
78767;SHT31;68092;51.982;5.680;2023-09-08T08:33:36;24.9;59.7
78767;SHT31;68092;51.982;5.680;2023-09-08T08:36:05;24.9;59.8
78767;SHT31;68092;51.982;5.680;2023-09-08T08:38:37;24.9;59.3
78767;SHT31;68092;51.982;5.680;2023-09-08T08:41:05;25.0;59.2
78767;SHT31;68092;51.982;5.680;2023-09-08T08:43:34;25.0;60.0
78767;SHT31;68092;51.982;5.680;2023-09-08T08:46:06;25.1;59.7
78767;SHT31;68092;51.982;5.680;2023-09-08T08:48:36;25.1;59.5
78767;SHT31;68092;51.982;5.680;2023-09-08T08:51:05;25.2;59.9
78767;SHT31;68092;51.982;5.680;2023-09-08T08:53:38;25.2;59.8
78767;SHT31;68092;51.982;5.680;2023-09-08T08:56:07;25.2;59.7
78767;SHT31;68092;51.982;5.680;2023-09-08T08:58:39;25.3;59.7
78767;SHT31;68092;51.982;5.680;2023-09-08T09:01:11;25.3;60.5
78767;SHT31;68092;51.982;5.680;2023-09-08T09:03:43;25.4;59.7
78767;SHT31;68092;51.982;5.680;2023-09-08T09:06:15;25.4;60.0
78767;SHT31;68092;51.982;5.680;2023-09-08T09:08:45;25.5;60.2
78767;SHT31;68092;51.982;5.680;2023-09-08T09:11:14;25.5;59.7
78767;SHT31;68092;51.982;5.680;2023-09-08T09:13:42;25.6;59.7
78767;SHT31;68092;51.982;5.680;2023-09-08T09:16:11;25.6;59.5
78767;SHT31;68092;51.982;5.680;2023-09-08T09:18:57;25.7;59.2
78767;SHT31;68092;51.982;5.680;2023-09-08T09:21:42;25.7;59.2
78767;SHT31;68092;51.982;5.680;2023-09-08T09:24:16;25.8;58.9
78767;SHT31;68092;51.982;5.680;2023-09-08T09:26:45;25.8;59.2
78767;SHT31;68092;51.982;5.680;2023-09-08T09:29:14;25.8;59.0
78767;SHT31;68092;51.982;5.680;2023-09-08T09:31:52;25.9;59.2
78767;SHT31;68092;51.982;5.680;2023-09-08T09:34:23;25.9;58.6
78767;SHT31;68092;51.982;5.680;2023-09-08T09:36:52;26.0;58.8
78767;SHT31;68092;51.982;5.680;2023-09-08T09:39:22;26.0;58.9
78767;SHT31;68092;51.982;5.680;2023-09-08T09:41:54;26.0;59.0
78767;SHT31;68092;51.982;5.680;2023-09-08T09:44:24;26.1;59.3
78767;SHT31;68092;51.982;5.680;2023-09-08T09:46:54;26.1;59.0
78767;SHT31;68092;51.982;5.680;2023-09-08T09:49:23;26.1;58.9
78767;SHT31;68092;51.982;5.680;2023-09-08T09:51:54;26.2;58.6
78767;SHT31;68092;51.982;5.680;2023-09-08T09:54:22;26.2;58.6
78767;SHT31;68092;51.982;5.680;2023-09-08T09:56:53;26.3;58.9
78767;SHT31;68092;51.982;5.680;2023-09-08T09:59:22;26.3;58.6
78767;SHT31;68092;51.982;5.680;2023-09-08T10:01:52;26.4;58.6
78767;SHT31;68092;51.982;5.680;2023-09-08T10:04:22;26.4;58.5
78767;SHT31;68092;51.982;5.680;2023-09-08T10:06:52;26.4;59.0
78767;SHT31;68092;51.982;5.680;2023-09-08T10:09:23;26.5;58.5
78767;SHT31;68092;51.982;5.680;2023-09-08T10:11:54;26.5;58.6
78767;SHT31;68092;51.982;5.680;2023-09-08T10:14:28;26.6;58.2
78767;SHT31;68092;51.982;5.680;2023-09-08T10:17:00;26.6;57.6
78767;SHT31;68092;51.982;5.680;2023-09-08T10:19:30;26.6;58.2
78767;SHT31;68092;51.982;5.680;2023-09-08T10:22:06;26.7;58.7
78767;SHT31;68092;51.982;5.680;2023-09-08T10:24:38;26.7;57.9
78767;SHT31;68092;51.982;5.680;2023-09-08T10:27:11;26.8;57.6
78767;SHT31;68092;51.982;5.680;2023-09-08T10:29:40;26.8;57.0
78767;SHT31;68092;51.982;5.680;2023-09-08T10:32:10;26.9;57.2
78767;SHT31;68092;51.982;5.680;2023-09-08T10:34:40;26.9;57.3
78767;SHT31;68092;51.982;5.680;2023-09-08T10:37:20;26.9;57.2
78767;SHT31;68092;51.982;5.680;2023-09-08T10:39:50;27.0;58.0
78767;SHT31;68092;51.982;5.680;2023-09-08T10:42:24;27.0;58.6
78767;SHT31;68092;51.982;5.680;2023-09-08T10:45:00;27.1;57.7
78767;SHT31;68092;51.982;5.680;2023-09-08T10:47:34;27.1;57.6
78767;SHT31;68092;51.982;5.680;2023-09-08T10:50:08;27.2;57.1
78767;SHT31;68092;51.982;5.680;2023-09-08T10:52:41;27.2;57.7
78767;SHT31;68092;51.982;5.680;2023-09-08T10:55:14;27.2;58.7
78767;SHT31;68092;51.982;5.680;2023-09-08T10:57:46;27.3;57.7
78767;SHT31;68092;51.982;5.680;2023-09-08T11:00:17;27.3;57.9
78767;SHT31;68092;51.982;5.680;2023-09-08T11:02:50;27.4;57.0
78767;SHT31;68092;51.982;5.680;2023-09-08T11:05:20;27.4;56.3
78767;SHT31;68092;51.982;5.680;2023-09-08T11:07:50;27.5;57.2
78767;SHT31;68092;51.982;5.680;2023-09-08T11:10:20;27.5;56.3
78767;SHT31;68092;51.982;5.680;2023-09-08T11:12:48;27.5;56.7
78767;SHT31;68092;51.982;5.680;2023-09-08T11:15:21;27.6;56.7
78767;SHT31;68092;51.982;5.680;2023-09-08T11:17:51;27.6;56.7
78767;SHT31;68092;51.982;5.680;2023-09-08T11:20:27;27.7;56.7
78767;SHT31;68092;51.982;5.680;2023-09-08T11:22:56;27.7;56.7
78767;SHT31;68092;51.982;5.680;2023-09-08T11:25:27;27.7;57.1
78767;SHT31;68092;51.982;5.680;2023-09-08T11:27:58;27.8;57.3
78767;SHT31;68092;51.982;5.680;2023-09-08T11:30:27;27.8;56.6
78767;SHT31;68092;51.982;5.680;2023-09-08T11:32:56;27.9;55.9
78767;SHT31;68092;51.982;5.680;2023-09-08T11:35:26;27.9;55.4
78767;SHT31;68092;51.982;5.680;2023-09-08T11:38:00;27.9;55.9
78767;SHT31;68092;51.982;5.680;2023-09-08T11:40:32;28.0;55.6
78767;SHT31;68092;51.982;5.680;2023-09-08T11:43:03;28.0;55.3
78767;SHT31;68092;51.982;5.680;2023-09-08T11:45:34;28.0;55.7
78767;SHT31;68092;51.982;5.680;2023-09-08T11:48:04;28.1;56.4
78767;SHT31;68092;51.982;5.680;2023-09-08T11:50:33;28.1;56.0
78767;SHT31;68092;51.982;5.680;2023-09-08T11:53:02;28.1;55.8
78767;SHT31;68092;51.982;5.680;2023-09-08T11:55:32;28.2;55.8
78767;SHT31;68092;51.982;5.680;2023-09-08T11:58:03;28.2;55.7
78767;SHT31;68092;51.982;5.680;2023-09-08T12:00:32;28.3;55.6
78767;SHT31;68092;51.982;5.680;2023-09-08T12:03:14;28.3;55.8
78767;SHT31;68092;51.982;5.680;2023-09-08T12:05:45;28.3;55.2
78767;SHT31;68092;51.982;5.680;2023-09-08T12:08:18;28.4;55.3
78767;SHT31;68092;51.982;5.680;2023-09-08T12:10:47;28.4;54.3
78767;SHT31;68092;51.982;5.680;2023-09-08T12:13:20;28.4;55.0
78767;SHT31;68092;51.982;5.680;2023-09-08T12:15:49;28.5;55.2
78767;SHT31;68092;51.982;5.680;2023-09-08T12:18:18;28.5;54.6
78767;SHT31;68092;51.982;5.680;2023-09-08T12:21:04;28.5;54.4
78767;SHT31;68092;51.982;5.680;2023-09-08T12:23:33;28.6;54.3
78767;SHT31;68092;51.982;5.680;2023-09-08T12:26:02;28.6;54.7
78767;SHT31;68092;51.982;5.680;2023-09-08T12:28:32;28.6;54.9
78767;SHT31;68092;51.982;5.680;2023-09-08T12:31:00;28.7;55.1
78767;SHT31;68092;51.982;5.680;2023-09-08T12:33:29;28.7;55.7
78767;SHT31;68092;51.982;5.680;2023-09-08T12:35:58;28.7;55.2
78767;SHT31;68092;51.982;5.680;2023-09-08T12:38:32;28.8;54.8
78767;SHT31;68092;51.982;5.680;2023-09-08T12:41:02;28.8;54.0
78767;SHT31;68092;51.982;5.680;2023-09-08T12:43:31;28.9;54.1
78767;SHT31;68092;51.982;5.680;2023-09-08T12:46:01;28.9;54.2
78767;SHT31;68092;51.982;5.680;2023-09-08T12:48:32;28.9;53.2
78767;SHT31;68092;51.982;5.680;2023-09-08T12:51:00;29.0;53.4
78767;SHT31;68092;51.982;5.680;2023-09-08T12:53:32;29.0;52.6
78767;SHT31;68092;51.982;5.680;2023-09-08T12:56:01;29.1;52.1
78767;SHT31;68092;51.982;5.680;2023-09-08T12:58:32;29.1;52.4
78767;SHT31;68092;51.982;5.680;2023-09-08T13:01:00;29.1;52.1
78767;SHT31;68092;51.982;5.680;2023-09-08T13:03:35;29.1;51.5
78767;SHT31;68092;51.982;5.680;2023-09-08T13:06:06;29.2;52.6
78767;SHT31;68092;51.982;5.680;2023-09-08T13:08:37;29.2;52.6
78767;SHT31;68092;51.982;5.680;2023-09-08T13:11:05;29.2;52.8
78767;SHT31;68092;51.982;5.680;2023-09-08T13:13:34;29.3;53.1
78767;SHT31;68092;51.982;5.680;2023-09-08T13:16:03;29.3;52.9
78767;SHT31;68092;51.982;5.680;2023-09-08T13:18:32;29.3;52.5
78767;SHT31;68092;51.982;5.680;2023-09-08T13:21:06;29.4;52.3
78767;SHT31;68092;51.982;5.680;2023-09-08T13:23:34;29.4;52.4
78767;SHT31;68092;51.982;5.680;2023-09-08T13:26:03;29.4;52.0
78767;SHT31;68092;51.982;5.680;2023-09-08T13:28:32;29.4;52.2
78767;SHT31;68092;51.982;5.680;2023-09-08T13:31:04;29.4;52.3
78767;SHT31;68092;51.982;5.680;2023-09-08T13:33:32;29.5;52.2
78767;SHT31;68092;51.982;5.680;2023-09-08T13:36:01;29.5;52.7
78767;SHT31;68092;51.982;5.680;2023-09-08T13:38:32;29.5;52.3
78767;SHT31;68092;51.982;5.680;2023-09-08T13:41:02;29.5;52.6
78767;SHT31;68092;51.982;5.680;2023-09-08T13:43:30;29.5;51.9
78767;SHT31;68092;51.982;5.680;2023-09-08T13:45:59;29.6;51.6
78767;SHT31;68092;51.982;5.680;2023-09-08T13:48:28;29.6;51.8
78767;SHT31;68092;51.982;5.680;2023-09-08T13:51:00;29.6;52.0
78767;SHT31;68092;51.982;5.680;2023-09-08T13:53:29;29.6;51.6
78767;SHT31;68092;51.982;5.680;2023-09-08T13:55:59;29.7;52.5
78767;SHT31;68092;51.982;5.680;2023-09-08T13:58:29;29.7;52.5
78767;SHT31;68092;51.982;5.680;2023-09-08T14:00:57;29.7;52.4
78767;SHT31;68092;51.982;5.680;2023-09-08T14:03:28;29.7;52.0
78767;SHT31;68092;51.982;5.680;2023-09-08T14:05:56;29.7;51.8
78767;SHT31;68092;51.982;5.680;2023-09-08T14:08:25;29.8;52.3
78767;SHT31;68092;51.982;5.680;2023-09-08T14:10:56;29.8;52.2
78767;SHT31;68092;51.982;5.680;2023-09-08T14:13:25;29.8;52.1
78767;SHT31;68092;51.982;5.680;2023-09-08T14:15:54;29.8;52.1
78767;SHT31;68092;51.982;5.680;2023-09-08T14:18:22;29.8;52.3
78767;SHT31;68092;51.982;5.680;2023-09-08T14:20:51;29.8;52.7
78767;SHT31;68092;51.982;5.680;2023-09-08T14:23:21;29.9;51.5
78767;SHT31;68092;51.982;5.680;2023-09-08T14:25:50;29.9;51.7
78767;SHT31;68092;51.982;5.680;2023-09-08T14:28:19;29.9;52.1
78767;SHT31;68092;51.982;5.680;2023-09-08T14:30:49;29.9;51.8
78767;SHT31;68092;51.982;5.680;2023-09-08T14:33:18;29.9;51.4
78767;SHT31;68092;51.982;5.680;2023-09-08T14:35:48;29.9;51.4
78767;SHT31;68092;51.982;5.680;2023-09-08T14:38:18;29.9;51.3
78767;SHT31;68092;51.982;5.680;2023-09-08T14:40:58;30.0;51.4
78767;SHT31;68092;51.982;5.680;2023-09-08T14:43:28;30.0;50.8
78767;SHT31;68092;51.982;5.680;2023-09-08T14:46:00;30.0;51.2
78767;SHT31;68092;51.982;5.680;2023-09-08T14:48:30;30.0;51.4
78767;SHT31;68092;51.982;5.680;2023-09-08T14:51:00;30.0;51.1
78767;SHT31;68092;51.982;5.680;2023-09-08T14:53:29;30.0;51.1
78767;SHT31;68092;51.982;5.680;2023-09-08T14:55:59;30.0;50.8
78767;SHT31;68092;51.982;5.680;2023-09-08T14:58:31;30.0;50.8
78767;SHT31;68092;51.982;5.680;2023-09-08T15:01:00;30.0;51.2
78767;SHT31;68092;51.982;5.680;2023-09-08T15:03:30;30.0;51.1
78767;SHT31;68092;51.982;5.680;2023-09-08T15:05:59;30.0;51.6
78767;SHT31;68092;51.982;5.680;2023-09-08T15:08:29;30.0;51.3
78767;SHT31;68092;51.982;5.680;2023-09-08T15:10:58;30.0;51.2
78767;SHT31;68092;51.982;5.680;2023-09-08T15:13:27;30.0;51.0
78767;SHT31;68092;51.982;5.680;2023-09-08T15:15:59;30.0;51.3
78767;SHT31;68092;51.982;5.680;2023-09-08T15:18:28;30.0;50.9
78767;SHT31;68092;51.982;5.680;2023-09-08T15:20:56;30.0;50.6
78767;SHT31;68092;51.982;5.680;2023-09-08T15:23:25;30.0;51.7
78767;SHT31;68092;51.982;5.680;2023-09-08T15:25:57;30.0;51.7
78767;SHT31;68092;51.982;5.680;2023-09-08T15:28:26;30.0;52.8
78767;SHT31;68092;51.982;5.680;2023-09-08T15:30:56;30.0;52.3
78767;SHT31;68092;51.982;5.680;2023-09-08T15:33:24;30.0;52.3
78767;SHT31;68092;51.982;5.680;2023-09-08T15:35:53;30.0;51.9
78767;SHT31;68092;51.982;5.680;2023-09-08T15:38:22;30.0;51.4
78767;SHT31;68092;51.982;5.680;2023-09-08T15:41:16;30.0;50.5
78767;SHT31;68092;51.982;5.680;2023-09-08T15:43:48;30.0;49.4
78767;SHT31;68092;51.982;5.680;2023-09-08T15:46:18;30.0;50.2
78767;SHT31;68092;51.982;5.680;2023-09-08T15:48:49;29.9;50.8
78767;SHT31;68092;51.982;5.680;2023-09-08T15:51:18;29.9;50.6
78767;SHT31;68092;51.982;5.680;2023-09-08T15:53:47;29.9;51.6
78767;SHT31;68092;51.982;5.680;2023-09-08T15:56:16;29.9;51.6
78767;SHT31;68092;51.982;5.680;2023-09-08T15:58:44;29.9;51.1
78767;SHT31;68092;51.982;5.680;2023-09-08T16:01:13;29.9;51.3
78767;SHT31;68092;51.982;5.680;2023-09-08T16:03:43;29.9;52.1
78767;SHT31;68092;51.982;5.680;2023-09-08T16:06:11;29.9;52.0
78767;SHT31;68092;51.982;5.680;2023-09-08T16:08:40;29.9;52.3
78767;SHT31;68092;51.982;5.680;2023-09-08T16:11:09;29.9;52.6
78767;SHT31;68092;51.982;5.680;2023-09-08T16:13:39;29.9;53.7
78767;SHT31;68092;51.982;5.680;2023-09-08T16:16:07;29.9;53.4
78767;SHT31;68092;51.982;5.680;2023-09-08T16:18:36;29.9;53.2